Time;durP1;ratioP1;P1;durP2;ratioP2;P2;SDS_P1;SDS_P2;PMS_P1;PMS_P2;Temp;Humidity;BMP_temperature;BMP_pressure;BME280_temperature;BME280_humidity;BME280_pressure;Samples;Min_cycle;Max_cycle;Signal;HPM_P1;HPM_P2
2023/08/30 00:01:14;;;;;;;2.33;2.20;;;;;;;15.15;100.00;99645.81;4964253;28;20297;-77
2023/08/30 00:03:39;;;;;;;2.40;2.20;;;;;;;15.17;100.00;99637.06;4967834;28;20225;-78
2023/08/30 00:06:05;;;;;;;2.07;1.97;;;;;;;15.20;100.00;99636.91;4965004;28;20204;-77
2023/08/30 00:08:32;;;;;;;2.07;1.97;;;;;;;15.21;100.00;99633.41;4965522;28;20217;-76
2023/08/30 00:11:04;;;;;;;2.40;2.20;;;;;;;15.22;100.00;99629.06;4968146;28;20699;-76
2023/08/30 00:13:32;;;;;;;2.50;2.30;;;;;;;15.23;100.00;99628.16;4959427;28;20285;-75
2023/08/30 00:15:57;;;;;;;2.30;2.10;;;;;;;15.23;100.00;99636.81;4964194;28;20194;-77
2023/08/30 00:18:23;;;;;;;2.63;2.00;;;;;;;15.23;100.00;99634.19;4968373;28;20207;-77
2023/08/30 00:20:48;;;;;;;1.93;1.83;;;;;;;15.26;100.00;99637.59;4968737;28;20197;-77
2023/08/30 00:23:14;;;;;;;2.27;2.10;;;;;;;15.26;100.00;99640.22;4983975;28;20201;-77
2023/08/30 00:25:39;;;;;;;2.20;2.10;;;;;;;15.27;100.00;99642.78;4984569;28;20221;-76
2023/08/30 00:28:04;;;;;;;1.90;1.80;;;;;;;15.28;100.00;99635.78;4965978;28;20221;-77
2023/08/30 00:30:31;;;;;;;2.10;2.00;;;;;;;15.29;100.00;99637.50;4961459;28;21336;-75
2023/08/30 00:32:56;;;;;;;1.90;1.80;;;;;;;15.30;100.00;99644.41;4964352;28;20245;-78
2023/08/30 00:35:21;;;;;;;2.10;2.00;;;;;;;15.27;100.00;99637.56;4970557;28;20189;-76
2023/08/30 00:37:47;;;;;;;2.30;2.20;;;;;;;15.24;100.00;99633.28;4967265;28;20209;-75
2023/08/30 00:40:12;;;;;;;3.53;2.23;;;;;;;15.23;100.00;99635.97;4963688;28;20736;-76
2023/08/30 00:42:40;;;;;;;2.20;2.00;;;;;;;15.22;100.00;99626.47;4966182;28;20271;-76
2023/08/30 00:45:06;;;;;;;2.20;2.00;;;;;;;15.20;100.00;99628.28;4967439;28;20202;-75
2023/08/30 00:47:32;;;;;;;1.60;1.50;;;;;;;15.19;100.00;99629.16;4968526;28;20697;-76
2023/08/30 00:49:57;;;;;;;2.20;2.03;;;;;;;15.20;100.00;99631.72;4965109;28;20217;-76
2023/08/30 00:52:23;;;;;;;2.00;1.90;;;;;;;15.21;100.00;99625.59;4965310;28;20201;-76
2023/08/30 00:54:48;;;;;;;1.80;1.70;;;;;;;15.23;100.00;99620.34;4966999;28;20194;-76
2023/08/30 00:57:16;;;;;;;2.37;2.17;;;;;;;15.24;100.00;99630.69;4967597;28;20203;-76
2023/08/30 00:59:42;;;;;;;1.83;1.73;;;;;;;15.26;100.00;99620.22;4962842;28;20280;-76
2023/08/30 01:02:07;;;;;;;2.20;2.00;;;;;;;15.26;100.00;99621.97;4965568;28;20206;-76
2023/08/30 01:04:32;;;;;;;3.10;2.10;;;;;;;15.27;100.00;99614.09;4965572;28;20228;-75
2023/08/30 01:06:58;;;;;;;2.23;2.10;;;;;;;15.26;100.00;99620.22;4963878;28;20213;-75
2023/08/30 01:09:24;;;;;;;1.80;1.70;;;;;;;15.24;100.00;99615.06;4963537;28;20217;-76
2023/08/30 01:12:00;;;;;;;1.93;1.83;;;;;;;15.25;100.00;99618.53;4966003;28;20244;-76
2023/08/30 01:14:49;;;;;;;2.47;2.00;;;;;;;15.25;100.00;99610.69;4964920;28;20667;-75
2023/08/30 01:17:16;;;;;;;1.90;1.80;;;;;;;15.26;100.00;99612.41;4958699;28;20197;-77
2023/08/30 01:19:58;;;;;;;2.30;1.80;;;;;;;15.28;100.00;99605.34;4958891;28;20221;-76
2023/08/30 01:22:36;;;;;;;2.10;2.00;;;;;;;15.29;100.00;99609.66;4961852;28;20187;-76
2023/08/30 01:25:26;;;;;;;1.73;1.63;;;;;;;15.30;100.00;99619.16;4964098;28;20188;-77
2023/08/30 01:27:53;;;;;;;1.77;1.67;;;;;;;15.29;100.00;99606.22;4964578;28;20197;-77
2023/08/30 01:30:20;;;;;;;1.90;1.80;;;;;;;15.30;100.00;99613.13;4959831;28;20190;-76
2023/08/30 01:32:46;;;;;;;2.13;1.93;;;;;;;15.28;100.00;99607.94;4969330;28;20566;-77
2023/08/30 01:35:17;;;;;;;1.80;1.70;;;;;;;15.28;100.00;99613.16;4967015;28;20304;-75
2023/08/30 01:37:45;;;;;;;2.13;2.00;;;;;;;15.28;100.00;99613.16;4982384;28;20194;-76
2023/08/30 01:40:11;;;;;;;1.90;1.80;;;;;;;15.29;100.00;99614.03;4964232;28;20274;-77
2023/08/30 01:42:38;;;;;;;2.07;1.70;;;;;;;15.29;100.00;99616.63;4981646;28;20280;-76
2023/08/30 01:45:05;;;;;;;1.70;1.60;;;;;;;15.28;100.00;99620.16;4963538;28;20197;-76
2023/08/30 01:47:34;;;;;;;1.80;1.70;;;;;;;15.28;100.00;99620.97;4967252;28;20220;-76
2023/08/30 01:50:01;;;;;;;2.10;2.00;;;;;;;15.28;100.00;99615.78;4963230;28;20213;-77
2023/08/30 01:52:27;;;;;;;2.37;1.80;;;;;;;15.29;100.00;99608.81;4968713;28;20189;-75
2023/08/30 01:54:53;;;;;;;1.67;1.57;;;;;;;15.29;100.00;99621.84;4966073;28;20194;-77
2023/08/30 01:57:19;;;;;;;1.83;1.73;;;;;;;15.29;100.00;99614.03;4966285;28;20190;-76
2023/08/30 01:59:44;;;;;;;1.73;1.63;;;;;;;15.29;100.00;99620.06;4960739;28;20224;-76
2023/08/30 02:02:09;;;;;;;2.00;1.90;;;;;;;15.28;100.00;99620.16;4966037;28;20233;-75
2023/08/30 02:04:35;;;;;;;3.07;2.10;;;;;;;15.28;100.00;99613.16;4965082;28;20241;-76
2023/08/30 02:07:03;;;;;;;2.20;2.00;;;;;;;15.26;100.00;99609.78;4963450;28;20248;-76
2023/08/30 02:09:40;;;;;;;1.90;1.80;;;;;;;15.24;100.00;99612.44;4960663;28;20224;-76
2023/08/30 02:12:10;;;;;;;2.40;2.20;;;;;;;15.21;100.00;99624.75;4963545;28;20185;-76
2023/08/30 02:14:38;;;;;;;2.00;1.80;;;;;;;15.18;100.00;99614.44;4963229;28;20755;-78
2023/08/30 02:17:05;;;;;;;3.20;1.77;;;;;;;15.14;100.00;99612.84;4966668;28;20197;-77
2023/08/30 02:19:31;;;;;;;2.30;1.87;;;;;;;15.11;100.00;99616.44;4961491;28;20219;-76
2023/08/30 02:21:56;;;;;;;1.90;1.80;;;;;;;15.09;100.00;99607.81;4955974;28;20197;-76
2023/08/30 02:24:22;;;;;;;2.40;2.20;;;;;;;15.07;100.00;99612.25;4968844;28;20194;-76
2023/08/30 02:26:47;;;;;;;2.23;2.07;;;;;;;15.04;100.00;99608.00;4963814;28;20197;-77
2023/08/30 02:29:13;;;;;;;2.60;2.10;;;;;;;15.06;100.00;99615.75;4964659;28;20676;-77
2023/08/30 02:31:38;;;;;;;2.50;2.27;;;;;;;15.02;100.00;99604.59;4970343;28;20193;-77
2023/08/30 02:34:03;;;;;;;2.80;2.40;;;;;;;15.02;100.00;99615.03;4983589;28;20646;-76
2023/08/30 02:36:29;;;;;;;2.60;2.40;;;;;;;15.01;100.00;99613.34;4962270;28;20190;-76
2023/08/30 02:38:54;;;;;;;2.47;2.27;;;;;;;15.03;100.00;99615.91;4958628;28;20224;-76
2023/08/30 02:41:19;;;;;;;2.23;2.03;;;;;;;15.03;100.00;99618.50;4962830;28;20202;-77
2023/08/30 02:43:45;;;;;;;2.53;2.33;;;;;;;15.04;100.00;99620.19;4965209;28;20197;-76
2023/08/30 02:46:10;;;;;;;2.37;2.17;;;;;;;15.05;100.00;99620.13;4967041;28;20207;-77
2023/08/30 02:48:35;;;;;;;2.40;2.20;;;;;;;15.05;100.00;99609.72;4964312;28;20319;-75
2023/08/30 02:51:01;;;;;;;2.10;2.00;;;;;;;15.04;100.00;99618.44;4964623;28;20221;-76
2023/08/30 02:53:26;;;;;;;3.13;2.80;;;;;;;15.04;100.00;99612.38;4961602;28;20566;-77
2023/08/30 02:55:55;;;;;;;2.70;2.50;;;;;;;15.04;100.00;99618.44;4964772;28;20325;-76
2023/08/30 02:58:21;;;;;;;2.70;2.50;;;;;;;15.03;100.00;99611.53;4959042;28;20224;-76
2023/08/30 03:00:46;;;;;;;2.77;2.50;;;;;;;15.04;100.00;99609.78;4961417;28;20312;-76
2023/08/30 03:03:11;;;;;;;2.97;2.50;;;;;;;15.04;100.00;99609.78;4968788;28;20208;-77
2023/08/30 03:05:37;;;;;;;2.50;2.30;;;;;;;15.03;100.00;99610.69;4967896;28;20215;-76
2023/08/30 03:08:02;;;;;;;2.60;2.40;;;;;;;15.02;100.00;99606.38;4963553;28;20317;-76
2023/08/30 03:10:28;;;;;;;2.70;2.50;;;;;;;15.02;100.00;99606.38;4958345;28;20325;-75
2023/08/30 03:12:53;;;;;;;4.00;3.07;;;;;;;15.00;100.00;99603.81;4962641;28;21331;-76
2023/08/30 03:15:18;;;;;;;3.70;3.03;;;;;;;15.00;100.00;99600.38;4967246;28;20181;-77
2023/08/30 03:17:44;;;;;;;3.13;2.87;;;;;;;14.98;100.00;99603.03;4953391;28;20189;-75
2023/08/30 03:20:10;;;;;;;3.10;2.90;;;;;;;14.96;100.00;99604.00;4959374;28;20189;-77
2023/08/30 03:22:35;;;;;;;2.90;2.70;;;;;;;14.94;100.00;99598.84;4965028;28;20547;-76
2023/08/30 03:25:03;;;;;;;3.10;2.80;;;;;;;14.91;100.00;99599.81;4963203;28;20201;-75
2023/08/30 03:27:28;;;;;;;3.83;3.30;;;;;;;14.89;100.00;99590.34;4964593;28;20220;-78
2023/08/30 03:29:55;;;;;;;2.60;2.40;;;;;;;14.88;100.00;99593.88;4962433;28;20213;-76
2023/08/30 03:32:21;;;;;;;2.90;2.70;;;;;;;14.86;100.00;99587.84;4963118;28;20572;-77
2023/08/30 03:34:47;;;;;;;2.63;2.47;;;;;;;14.85;100.00;99593.97;4964700;28;20193;-76
2023/08/30 03:37:16;;;;;;;2.67;2.47;;;;;;;14.84;100.00;99598.34;4961632;28;20187;-77
2023/08/30 03:39:42;;;;;;;2.60;2.40;;;;;;;14.85;100.00;99592.25;4961596;28;20210;-77
2023/08/30 03:42:07;;;;;;;2.70;2.50;;;;;;;14.85;100.00;99601.78;4960859;28;20954;-76
2023/08/30 03:44:35;;;;;;;2.50;2.30;;;;;;;14.87;100.00;99599.97;4962033;28;20217;-77
2023/08/30 03:47:00;;;;;;;2.60;2.40;;;;;;;14.85;100.00;99600.06;4961695;28;20224;-77
2023/08/30 03:49:26;;;;;;;2.30;2.20;;;;;;;14.87;100.00;99597.38;4962877;28;20217;-77
2023/08/30 03:51:51;;;;;;;2.87;2.67;;;;;;;14.87;100.00;99606.06;4965109;28;20200;-78
2023/08/30 03:54:17;;;;;;;2.93;2.60;;;;;;;14.87;100.00;99599.97;4963297;28;20197;-77
2023/08/30 03:56:43;;;;;;;2.57;2.40;;;;;;;14.88;100.00;99599.06;4978372;28;20309;-77
2023/08/30 03:59:09;;;;;;;2.60;2.40;;;;;;;14.89;100.00;99598.16;4967310;28;20255;-77
2023/08/30 04:01:34;;;;;;;2.60;2.40;;;;;;;14.89;100.00;99601.66;4978743;28;20626;-77
2023/08/30 04:03:59;;;;;;;2.60;2.40;;;;;;;14.90;100.00;99594.66;4963019;28;20191;-77
2023/08/30 04:06:25;;;;;;;2.60;2.40;;;;;;;14.91;100.00;99591.16;4963524;28;20206;-77
2023/08/30 04:08:50;;;;;;;2.40;2.30;;;;;;;14.91;100.00;99596.38;4960982;28;20220;-77
2023/08/30 04:11:15;;;;;;;2.67;2.47;;;;;;;14.92;100.00;99596.28;4966566;28;20189;-77
2023/08/30 04:13:41;;;;;;;2.47;2.30;;;;;;;14.92;100.00;99596.28;4978151;28;20243;-76
2023/08/30 04:16:06;;;;;;;2.67;2.47;;;;;;;14.92;100.00;99595.47;4964723;28;20181;-76
2023/08/30 04:18:31;;;;;;;2.63;2.43;;;;;;;14.92;100.00;99595.47;4973104;28;20213;-76
2023/08/30 04:20:58;;;;;;;2.70;2.50;;;;;;;14.92;100.00;99596.28;4965118;28;20864;-78
2023/08/30 04:23:23;;;;;;;3.63;2.80;;;;;;;14.93;100.00;99595.38;4966203;28;20654;-77
2023/08/30 04:25:49;;;;;;;4.30;2.70;;;;;;;14.92;100.00;99592.84;4968935;28;20213;-77
2023/08/30 04:28:14;;;;;;;2.50;2.40;;;;;;;14.90;100.00;99590.28;4969837;28;20218;-76
2023/08/30 04:30:42;;;;;;;2.63;2.43;;;;;;;14.90;100.00;99598.09;4975707;28;20200;-76
2023/08/30 04:33:07;;;;;;;2.57;2.20;;;;;;;14.90;100.00;99594.66;4969968;28;20194;-77
2023/08/30 04:35:33;;;;;;;2.30;2.07;;;;;;;14.89;100.00;99590.34;4967008;28;20197;-76
2023/08/30 04:38:00;;;;;;;2.47;2.27;;;;;;;14.90;100.00;99594.66;4965608;28;20304;-76
2023/08/30 04:40:26;;;;;;;2.60;2.40;;;;;;;14.88;100.00;99594.72;4967066;28;20882;-76
2023/08/30 04:42:51;;;;;;;2.70;2.50;;;;;;;14.87;100.00;99594.78;4972131;28;20193;-77
2023/08/30 04:45:16;;;;;;;2.33;2.23;;;;;;;14.87;100.00;99602.59;4979361;28;20194;-76
2023/08/30 04:47:43;;;;;;;2.60;2.40;;;;;;;14.86;100.00;99601.75;4966135;28;20259;-78
2023/08/30 04:50:09;;;;;;;2.10;2.00;;;;;;;14.86;100.00;99604.34;4968390;28;20208;-76
2023/08/30 04:52:34;;;;;;;2.40;2.20;;;;;;;14.86;100.00;99600.88;4966403;28;20284;-76
2023/08/30 04:54:59;;;;;;;2.20;2.10;;;;;;;14.86;100.00;99599.16;4964024;28;20277;-78
2023/08/30 04:57:25;;;;;;;2.60;2.40;;;;;;;14.86;100.00;99601.75;4978390;28;20186;-75
2023/08/30 04:59:50;;;;;;;2.97;2.57;;;;;;;14.86;100.00;99601.75;4966474;28;20768;-78
2023/08/30 05:02:16;;;;;;;2.60;2.40;;;;;;;14.87;100.00;99592.16;4964620;28;20219;-77
2023/08/30 05:04:41;;;;;;;2.70;2.50;;;;;;;14.88;100.00;99599.06;4966838;28;20414;-77
2023/08/30 05:07:06;;;;;;;2.57;2.37;;;;;;;14.91;100.00;99597.19;4965134;28;20229;-78
2023/08/30 05:09:33;;;;;;;2.33;2.13;;;;;;;14.96;100.00;99601.38;4967930;28;20231;-77
2023/08/30 05:11:58;;;;;;;2.27;2.17;;;;;;;14.98;100.00;99604.78;4968224;28;20203;-77
2023/08/30 05:14:23;;;;;;;2.73;2.50;;;;;;;14.99;100.00;99606.50;4965486;28;20192;-78
2023/08/30 05:16:50;;;;;;;2.43;2.33;;;;;;;15.02;100.00;99603.78;4967224;28;20311;-77
2023/08/30 05:19:16;;;;;;;2.30;2.10;;;;;;;15.04;100.00;99615.00;4967235;28;20268;-76
2023/08/30 05:21:42;;;;;;;4.43;2.30;;;;;;;15.06;100.00;99606.19;4961971;28;20193;-76
2023/08/30 05:24:08;;;;;;;2.37;2.20;;;;;;;15.10;100.00;99612.13;4969145;28;20224;-77
2023/08/30 05:26:33;;;;;;;2.50;2.27;;;;;;;15.14;100.00;99612.84;4967677;28;20206;-78
2023/08/30 05:28:59;;;;;;;2.80;2.10;;;;;;;15.18;100.00;99604.00;4981170;28;20222;-76
2023/08/30 05:31:24;;;;;;;3.50;2.43;;;;;;;15.23;100.00;99599.47;4966772;28;20190;-78
2023/08/30 05:33:50;;;;;;;2.53;2.30;;;;;;;15.28;100.00;99599.28;4965011;28;20659;-75
2023/08/30 05:36:15;;;;;;;3.20;2.60;;;;;;;15.33;100.00;99605.19;4962725;28;20272;-79
2023/08/30 05:38:41;;;;;;;2.70;2.50;;;;;;;15.36;100.00;99590.25;4966086;28;20209;-77
2023/08/30 05:41:07;;;;;;;3.13;2.87;;;;;;;15.39;100.00;99589.28;4963639;28;20669;-77
2023/08/30 05:43:32;;;;;;;2.80;2.60;;;;;;;15.41;100.00;99586.63;4963642;28;20190;-77
2023/08/30 05:46:02;;;;;;;2.60;2.40;;;;;;;15.42;100.00;99590.94;4965753;28;20611;-78
2023/08/30 05:48:27;;;;;;;2.60;2.40;;;;;;;15.44;100.00;99595.16;4962037;28;20233;-77
2023/08/30 05:50:53;;;;;;;2.63;2.43;;;;;;;15.47;100.00;99596.78;4969429;28;20299;-76
2023/08/30 05:53:18;;;;;;;2.57;2.10;;;;;;;15.47;100.00;99596.78;4967732;28;20272;-78
2023/08/30 05:55:43;;;;;;;2.73;2.50;;;;;;;15.50;100.00;99601.88;4962290;28;20182;-77
2023/08/30 05:58:09;;;;;;;2.67;2.30;;;;;;;15.51;100.00;99606.19;4962716;28;20205;-77
2023/08/30 06:00:34;;;;;;;2.73;2.50;;;;;;;15.52;100.00;99594.84;4964148;28;20196;-77
2023/08/30 06:02:59;;;;;;;2.73;2.20;;;;;;;15.57;100.00;99595.53;4970768;28;20280;-77
2023/08/30 06:05:26;;;;;;;2.60;2.40;;;;;;;15.65;100.00;99593.44;4981774;28;20220;-77
2023/08/30 06:07:51;;;;;;;2.33;2.03;;;;;;;15.77;100.00;99589.50;4966931;28;20290;-76
2023/08/30 06:10:16;;;;;;;2.43;2.23;;;;;;;15.89;100.00;99595.13;4967440;28;20209;-76
2023/08/30 06:12:42;;;;;;;2.10;2.00;;;;;;;15.99;100.00;99592.06;4967030;28;20190;-78
2023/08/30 06:15:07;;;;;;;2.33;2.23;;;;;;;16.11;100.00;99592.44;4968231;28;20189;-76
2023/08/30 06:17:33;;;;;;;3.13;2.37;;;;;;;16.21;100.00;99603.34;4961724;28;20233;-77
2023/08/30 06:19:58;;;;;;;2.40;2.30;;;;;;;16.32;100.00;99587.22;4968439;28;20210;-78
2023/08/30 06:22:23;;;;;;;2.87;2.10;;;;;;;16.43;100.00;99598.03;4963713;28;20202;-77
2023/08/30 06:24:49;;;;;;;7.67;2.60;;;;;;;16.56;100.00;99598.34;4968483;28;20320;-78
2023/08/30 06:27:14;;;;;;;2.53;2.33;;;;;;;16.66;100.00;99599.63;4966874;28;20255;-78
2023/08/30 06:29:42;;;;;;;2.53;2.23;;;;;;;16.84;100.00;99591.84;4966791;28;20821;-77
2023/08/30 06:32:07;;;;;;;2.73;2.30;;;;;;;16.98;100.00;99593.84;4968227;28;20274;-75
2023/08/30 06:34:32;;;;;;;2.63;2.40;;;;;;;17.08;100.00;99599.50;4961727;28;20272;-76
2023/08/30 06:36:58;;;;;;;2.27;2.17;;;;;;;17.24;100.00;99592.63;4965735;28;20193;-77
2023/08/30 06:39:23;;;;;;;2.30;2.20;;;;;;;17.35;100.00;99594.72;4965295;28;20275;-76
2023/08/30 06:41:48;;;;;;;2.23;2.03;;;;;;;17.44;100.00;99599.50;4958998;28;20201;-76
2023/08/30 06:44:14;;;;;;;3.30;3.10;;;;;;;17.54;100.00;99599.06;4954991;28;20196;-77
2023/08/30 06:46:39;;;;;;;4.57;4.17;;;;;;;17.67;100.00;99592.31;4965212;28;20215;-77
2023/08/30 06:49:05;;;;;;;4.30;3.90;;;;;;;17.74;100.00;99598.06;4965798;28;20693;-76
2023/08/30 06:51:31;;;;;;;3.00;2.80;;;;;;;17.82;100.00;99596.78;4968488;28;20195;-77
2023/08/30 06:54:00;;;;;;;4.33;3.83;;;;;;;17.86;100.00;99592.22;4964483;28;20569;-76
2023/08/30 06:56:26;;;;;;;3.10;2.77;;;;;;;17.83;100.00;99593.22;4965927;28;20186;-76
2023/08/30 06:58:51;;;;;;;2.30;2.10;;;;;;;17.77;100.00;99590.06;4967977;28;20341;-76
2023/08/30 07:01:16;;;;;;;2.23;1.90;;;;;;;17.72;100.00;99587.66;4966290;28;20298;-75
2023/08/30 07:03:42;;;;;;;2.60;2.40;;;;;;;17.73;100.00;99585.91;4969398;28;20181;-77
2023/08/30 07:06:07;;;;;;;3.20;1.97;;;;;;;17.74;100.00;99587.59;4967385;28;20202;-76
2023/08/30 07:08:32;;;;;;;2.27;1.90;;;;;;;17.78;100.00;99583.88;4966924;28;20221;-76
2023/08/30 07:10:58;;;;;;;2.63;2.23;;;;;;;17.83;100.00;99587.13;4967248;28;20188;-75
2023/08/30 07:13:23;;;;;;;2.13;1.90;;;;;;;17.90;100.00;99579.81;4966235;28;20193;-76
2023/08/30 07:15:49;;;;;;;1.90;1.80;;;;;;;17.96;100.00;99585.59;4967747;28;20619;-77
2023/08/30 07:18:14;;;;;;;2.63;1.90;;;;;;;18.04;100.00;99589.63;4965210;28;20296;-76
2023/08/30 07:20:39;;;;;;;1.90;1.80;;;;;;;18.08;100.00;99575.44;4967210;28;20185;-76
2023/08/30 07:23:05;;;;;;;2.07;1.97;;;;;;;18.18;100.00;99573.19;4968016;28;20190;-77
2023/08/30 07:25:32;;;;;;;2.33;1.90;;;;;;;18.32;100.00;99578.53;4968308;28;20288;-76
2023/08/30 07:27:58;;;;;;;2.90;2.53;;;;;;;18.51;100.00;99575.81;4969008;28;20204;-75
2023/08/30 07:30:24;;;;;;;2.97;2.60;;;;;;;18.58;100.00;99573.72;4959157;28;20188;-76
2023/08/30 07:32:49;;;;;;;1.97;1.87;;;;;;;18.88;100.00;99571.19;4963880;28;20170;-77
2023/08/30 07:35:14;;;;;;;2.40;2.20;;;;;;;19.17;100.00;99571.38;4969370;28;20557;-77
2023/08/30 07:37:40;;;;;;;3.10;2.90;;;;;;;19.31;99.37;99573.22;4966560;28;20264;-76
2023/08/30 07:40:05;;;;;;;3.70;2.70;;;;;;;19.33;99.33;99576.59;4967375;28;20232;-76
2023/08/30 07:42:31;;;;;;;2.63;2.43;;;;;;;19.36;99.24;99572.97;4970797;28;20268;-76
2023/08/30 07:44:56;;;;;;;3.03;2.73;;;;;;;19.54;99.46;99571.03;4962561;28;20220;-76
2023/08/30 07:47:21;;;;;;;2.40;2.30;;;;;;;19.87;98.58;99550.84;4962704;28;20216;-77
2023/08/30 07:49:47;;;;;;;2.63;2.43;;;;;;;20.03;98.20;99556.84;4959361;28;20217;-76
2023/08/30 07:52:12;;;;;;;2.50;2.30;;;;;;;19.92;97.79;99564.50;4970134;28;20182;-77
2023/08/30 07:54:39;;;;;;;3.17;2.60;;;;;;;19.95;98.21;99562.56;4968796;28;20177;-77
2023/08/30 07:57:05;;;;;;;2.70;2.50;;;;;;;20.17;98.08;99563.06;4966800;28;20186;-78
2023/08/30 07:59:33;;;;;;;2.80;2.60;;;;;;;20.08;97.82;99562.66;4968229;28;20628;-78
2023/08/30 08:01:58;;;;;;;3.67;2.70;;;;;;;20.22;97.25;99566.22;4963163;28;20240;-75
2023/08/30 08:04:23;;;;;;;3.00;2.43;;;;;;;20.43;96.55;99577.19;4968611;28;20210;-79
2023/08/30 08:06:51;;;;;;;2.77;2.57;;;;;;;20.55;95.32;99576.47;4968161;28;20217;-78
2023/08/30 08:09:17;;;;;;;2.40;2.20;;;;;;;20.70;95.72;99574.66;4966265;28;20205;-77
2023/08/30 08:11:43;;;;;;;3.97;3.27;;;;;;;20.59;94.67;99568.38;4965361;28;20196;-76
2023/08/30 08:14:10;;;;;;;2.63;2.40;;;;;;;20.65;94.46;99566.19;4967577;28;20224;-76
2023/08/30 08:16:36;;;;;;;2.57;2.40;;;;;;;20.67;94.38;99564.31;4968402;28;20197;-77
2023/08/30 08:19:02;;;;;;;2.87;2.60;;;;;;;20.56;94.85;99561.53;4968806;28;20208;-78
2023/08/30 08:21:28;;;;;;;3.97;2.57;;;;;;;20.52;94.24;99563.50;4967911;28;20557;-78
2023/08/30 08:23:53;;;;;;;2.70;2.50;;;;;;;20.45;94.60;99566.63;4970603;28;20181;-77
2023/08/30 08:26:18;;;;;;;2.90;2.63;;;;;;;20.60;94.88;99562.16;4974011;28;20217;-76
2023/08/30 08:28:49;;;;;;;2.60;2.40;;;;;;;20.83;94.17;99566.00;4968739;28;20797;-76
2023/08/30 08:31:14;;;;;;;2.40;2.30;;;;;;;21.08;93.40;99570.56;4967605;28;20179;-77
2023/08/30 08:33:40;;;;;;;2.60;2.40;;;;;;;21.27;91.99;99567.56;4969804;28;20194;-78
2023/08/30 08:36:05;;;;;;;2.80;2.20;;;;;;;21.39;91.59;99565.09;4971647;28;20190;-76
2023/08/30 08:38:30;;;;;;;2.77;2.33;;;;;;;21.56;90.66;99575.34;4961478;28;20206;-76
2023/08/30 08:41:06;;;;;;;2.30;2.10;;;;;;;21.77;88.42;99569.63;4964948;28;20190;-77
2023/08/30 08:43:34;;;;;;;4.43;2.40;;;;;;;21.86;88.39;99579.53;4968358;28;20182;-76
2023/08/30 08:46:00;;;;;;;2.53;2.33;;;;;;;22.00;87.84;99578.59;4982290;28;20204;-77
2023/08/30 08:48:28;;;;;;;2.47;2.27;;;;;;;22.22;85.76;99575.34;4973350;28;20214;-77
2023/08/30 08:50:54;;;;;;;3.03;2.30;;;;;;;22.39;85.17;99576.78;4962214;28;20209;-76
2023/08/30 08:53:20;;;;;;;2.50;2.30;;;;;;;22.52;84.93;99584.72;4973382;28;20789;-76
2023/08/30 08:55:46;;;;;;;2.27;2.07;;;;;;;22.70;83.50;99581.72;4973459;28;20186;-76
2023/08/30 08:58:14;;;;;;;3.07;2.47;;;;;;;22.77;83.18;99585.59;4992989;28;20204;-78
2023/08/30 09:00:42;;;;;;;2.70;2.50;;;;;;;22.62;83.33;99587.56;4967981;28;20732;-76
2023/08/30 09:03:08;;;;;;;2.87;2.67;;;;;;;22.71;83.82;99593.97;4965393;28;20598;-76
2023/08/30 09:05:37;;;;;;;2.93;2.33;;;;;;;22.88;83.55;99590.13;4965138;28;20186;-75
2023/08/30 09:08:04;;;;;;;2.87;2.50;;;;;;;22.99;82.43;99590.19;4970752;28;20228;-77
2023/08/30 09:10:29;;;;;;;2.50;2.30;;;;;;;23.05;82.50;99590.69;4972556;28;20306;-78
2023/08/30 09:12:55;;;;;;;2.30;2.10;;;;;;;23.12;82.05;99590.16;4958804;28;20269;-76
2023/08/30 09:15:21;;;;;;;3.83;2.47;;;;;;;23.21;82.41;99595.75;4972541;28;20202;-76
2023/08/30 09:17:46;;;;;;;2.70;2.50;;;;;;;23.01;82.23;99597.13;4967767;28;20183;-77
2023/08/30 09:20:12;;;;;;;3.30;2.90;;;;;;;22.77;82.26;99596.16;4966404;28;20182;-78
2023/08/30 09:22:39;;;;;;;2.87;2.27;;;;;;;22.88;82.93;99598.03;4967955;28;20193;-78
2023/08/30 09:25:09;;;;;;;2.53;2.33;;;;;;;22.81;82.50;99597.63;4968967;28;20217;-76
2023/08/30 09:27:35;;;;;;;3.47;2.40;;;;;;;23.02;83.10;99598.84;4967818;28;20374;-77
2023/08/30 09:30:01;;;;;;;4.23;2.23;;;;;;;23.10;82.82;99596.50;4968492;28;20202;-77
2023/08/30 09:32:26;;;;;;;2.47;2.10;;;;;;;23.18;82.54;99596.75;4970248;28;20186;-78
2023/08/30 09:34:51;;;;;;;2.87;2.53;;;;;;;23.03;82.66;99593.47;4968359;28;20681;-76
2023/08/30 09:37:23;;;;;;;2.77;2.33;;;;;;;23.13;81.99;99597.09;4969352;28;20720;-76
2023/08/30 09:39:52;;;;;;;2.50;2.27;;;;;;;23.24;82.62;99592.88;4969194;28;20585;-75
2023/08/30 09:42:17;;;;;;;2.87;1.93;;;;;;;23.39;82.76;99590.91;4968924;28;20260;-76
2023/08/30 09:44:43;;;;;;;3.37;2.43;;;;;;;23.53;82.27;99582.81;4962992;28;20670;-76
2023/08/30 09:47:12;;;;;;;2.70;2.40;;;;;;;23.59;81.95;99581.50;4983560;28;20202;-75
2023/08/30 09:49:43;;;;;;;4.27;2.07;;;;;;;23.69;81.16;99579.00;4975572;28;20210;-76
2023/08/30 09:52:09;;;;;;;2.43;2.20;;;;;;;23.72;81.16;99576.16;4964450;28;20193;-76
2023/08/30 09:54:38;;;;;;;1.90;1.80;;;;;;;23.78;80.86;99575.66;4968364;28;20189;-77
2023/08/30 09:57:04;;;;;;;2.27;2.07;;;;;;;23.84;80.55;99580.50;4967250;28;20181;-76
2023/08/30 09:59:30;;;;;;;2.80;2.60;;;;;;;23.85;80.15;99576.91;4970065;28;20205;-77
2023/08/30 10:01:57;;;;;;;3.00;2.43;;;;;;;23.91;80.13;99562.38;4964888;28;20567;-77
2023/08/30 10:04:24;;;;;;;2.50;2.30;;;;;;;23.97;79.20;99569.88;4970077;28;20202;-76
2023/08/30 10:06:51;;;;;;;2.40;2.20;;;;;;;23.90;79.07;99565.97;4969322;28;20297;-76
2023/08/30 10:09:21;;;;;;;2.50;2.40;;;;;;;23.98;79.60;99563.59;4968330;28;20220;-75
2023/08/30 10:11:47;;;;;;;3.83;2.80;;;;;;;23.68;79.81;99564.13;4967130;28;21014;-77
2023/08/30 10:14:13;;;;;;;2.37;2.17;;;;;;;23.86;79.74;99565.38;4963950;28;20218;-76
2023/08/30 10:16:48;;;;;;;2.30;2.10;;;;;;;23.90;79.82;99561.50;4964891;28;20182;-80
2023/08/30 10:19:24;;;;;;;2.60;2.40;;;;;;;23.91;79.62;99559.72;4969042;28;20200;-80
2023/08/30 10:22:12;;;;;;;2.53;2.10;;;;;;;24.05;79.10;99551.59;4971713;28;20196;-79
2023/08/30 10:24:48;;;;;;;2.30;2.10;;;;;;;23.63;80.79;99540.69;4988772;28;20245;-80
2023/08/30 10:27:15;;;;;;;2.10;2.00;;;;;;;23.56;81.47;99539.47;4983299;28;20698;-80
2023/08/30 10:29:42;;;;;;;2.47;2.27;;;;;;;23.57;81.28;99542.00;4964599;28;20297;-80
2023/08/30 10:32:08;;;;;;;3.13;2.73;;;;;;;23.02;82.60;99539.00;4968737;28;20192;-80
2023/08/30 10:34:35;;;;;;;2.40;2.20;;;;;;;23.22;82.07;99532.28;4975116;28;20599;-80
2023/08/30 10:37:02;;;;;;;2.80;2.27;;;;;;;23.23;82.52;99527.81;4967860;28;20229;-79
2023/08/30 10:39:38;;;;;;;2.50;2.27;;;;;;;23.17;81.51;99531.75;4967559;28;20304;-80
2023/08/30 10:42:09;;;;;;;2.27;2.17;;;;;;;23.22;80.54;99523.50;4963103;28;20197;-80
2023/08/30 10:44:35;;;;;;;3.03;2.40;;;;;;;22.87;80.86;99532.19;4959295;28;20192;-80
2023/08/30 10:47:02;;;;;;;2.20;2.10;;;;;;;23.03;80.65;99526.63;4964148;28;20296;-80
2023/08/30 10:49:28;;;;;;;2.43;2.23;;;;;;;23.17;80.19;99513.25;4960429;28;20201;-79
2023/08/30 10:51:57;;;;;;;2.57;2.30;;;;;;;23.06;80.18;99519.34;4963643;28;20267;-80
2023/08/30 10:54:26;;;;;;;3.70;2.50;;;;;;;23.26;80.15;99519.69;4969104;28;20198;-81
2023/08/30 10:56:51;;;;;;;2.00;1.90;;;;;;;23.42;79.34;99514.94;4981433;28;20197;-79
2023/08/30 10:59:21;;;;;;;2.23;1.90;;;;;;;23.40;79.43;99516.84;4968629;28;20317;-80
2023/08/30 11:01:48;;;;;;;2.00;1.90;;;;;;;23.47;79.19;99509.31;4964616;28;20194;-79
2023/08/30 11:04:15;;;;;;;1.80;1.70;;;;;;;23.26;79.87;99507.34;4964860;28;20182;-79
2023/08/30 11:06:42;;;;;;;2.03;1.93;;;;;;;23.33;79.97;99506.88;4969648;28;20206;-79
2023/08/30 11:09:08;;;;;;;2.23;2.07;;;;;;;23.21;79.76;99506.00;4969567;28;20205;-79
2023/08/30 11:11:36;;;;;;;2.20;2.00;;;;;;;23.03;80.05;99501.09;4966993;28;20236;-79
2023/08/30 11:14:06;;;;;;;3.17;2.20;;;;;;;22.98;80.39;99500.59;4964624;28;20198;-79
2023/08/30 11:16:36;;;;;;;2.20;2.00;;;;;;;22.97;80.15;99505.03;4979370;28;20190;-81
2023/08/30 11:19:05;;;;;;;2.93;2.43;;;;;;;22.86;80.60;99493.59;4968198;28;20821;-80
2023/08/30 11:21:32;;;;;;;2.33;2.20;;;;;;;22.88;81.18;99492.50;4967309;28;20229;-82
2023/08/30 11:23:58;;;;;;;1.80;1.70;;;;;;;23.24;80.24;99484.63;4962649;28;20768;-80